Airfield :
LOGIN :

Register | Disclaimer

   EN    FR    IT 

 










Legend :    VFR   Marginal VFR   IFR   Intensive IFR   Very Intensive IFR
Visi :
Ceiling :
>= 8 km
>= 3000ft
5 to 8 km
1000 to 3000 ft
1500m to 5 km
500 to 1000 ft
800 to 1500m
200 to 500 ft
< 800m
< 200 ft
Symbols :   Thunderstorms  Fog  Heavy snow  Heavy precipitations  Wind > 20 kt
SIGMETs :     Misc.  Thunderstorms  Icing  Turbulence  Mountain Waves  Volcanic Ashes






- Airport Elevation : 256 ft
- IATA code : KUN


EYKA - Kaunas

CURRENT METAR :
  • 210050Z AUTO 16006KT 140V210 9999 NCD 00/M02 Q1015

EXPIRED METARs :
  • 210020Z AUTO 16007KT 9999 NCD 00/M02 Q1016
  • 202350Z AUTO 17005KT 130V200 9999 NCD 00/M02 Q1016
  • 202320Z AUTO 17006KT 9999 NCD 00/M02 Q1017
  • 202250Z AUTO 18004KT 140V220 9999 NCD 00/M02 Q1017
  • 202220Z 18006KT 150V210 CAVOK 01/M02 Q1017 R08/290195

TAF TAF EYKA
Valid from the 21 at 00:00 until the 22 at 00:00 UTC


202311Z 2100/2124 VRB03KT 9000 BKN020
BECMG 2106/2107 16014G24KT OVC010
TEMPO 2107/2116 3000 SHRASN BKN005 BKN015CB
BECMG 2116/2117 24010KT
TEMPO 2118/2124 5000 RA BR BKN005



MET'MAP, your aeronautical weather chart ! - Copyright ORBIFLY December 2007 - Disclaimer

ORBIFLY MET'MAP TEAM :

Programming & Development : Alexandra Zaïnal
Concept & original design : Baudouin d'Aumeries
Assistance for programming : Marc-Olivier Méhu
Technical & hardware support : Manuel Goepfert

Contact : metmap@orbifly.com




SOURCES & CREDITS :

   NOAA